sim
Sign-in with your pilot id or email,
or register
Callsign
Passwort

Schedule Details

Flight Number: EWG1968 (2)
Departure: Munich Airport (EDDM) at 12:00
Arrival: Kosice International Airport (LZKZ) at 13:20
Route: Eurowings Passenger Schedule. Enter filed route here before submitting Pirep.

Weather Information
Getting current METAR information for EDDM 192250Z VRB01KT CAVOK 09/08 Q1017 NOSIG
Getting current METAR information for LZKZ 192230Z 27002KT CAVOK 09/06 Q1021

Schedule Frequency

Route Map